Latest Weather Observations for Truscott

IDW60801

Issued at 6:05 pm WST Saturday 25 October 2014 (issued every 30 minutes, with the page automatically refreshed every 10 minutes)

About weather observations | Map of weather stations | Latest weather observations for WA | Other Formats
Station Details ID: 001020 Name: TRUSCOTT Lat: -14.09 Lon: 126.39 Height: 51.0 m
Data from the previous 72 hours. | See also: Recent months at Truscott
Date/Time
WST
Temp
°C
App
Temp
°C
Dew
Point
Rel
Hum
%
Delta-T
°C
Wind Press
QNH
hPa
Press
MSL
hPa
Rain
since 9 am
mm
Dir
 
Spd
km/h
Gust
km/h
Spd
kts
Gust
kts
25/06:00pm 22.7 23.3 21.0 90 1.1 WNW 19 20 10 11 1013.0 1012.7 11.6
25/05:50pm 23.0 24.9 22.0 94 0.7 W 15 20 8 11 1013.0 - 11.6
25/05:36pm 22.0 24.1 21.0 94 0.7 WNW 11 13 6 7 1013.0 - 11.0
25/05:30pm 22.0 24.5 21.0 94 0.7 N 9 9 5 5 1014.0 - 10.2
25/05:17pm 22.0 24.0 20.0 88 1.3 ESE 9 - 5 - 1014.0 - 5.6
25/05:08pm 23.0 25.0 20.0 83 1.9 SSE 9 37 5 20 1014.0 - 1.2
25/05:00pm 25.0 22.6 19.0 69 3.8 S 30 - 16 - 1014.0 - 0.0
25/04:30pm 29.0 31.4 23.0 70 4.1 NW 15 - 8 - 1012.0 - 0.0
25/04:00pm 29.0 29.7 23.0 70 4.1 NNW 24 - 13 - 1011.0 - 0.0
25/03:30pm 30.0 31.1 23.0 66 4.8 NNW 22 - 12 - 1011.0 - 0.0
25/03:00pm 30.5 31.8 22.7 63 5.3 NNW 20 - 11 - 1011.0 1010.7 0.0
25/02:30pm 31.0 31.9 22.0 58 6.1 NNW 20 - 11 - 1011.0 - 0.0
25/02:00pm 31.0 31.6 21.0 55 6.7 NNW 19 - 10 - 1011.0 - 0.0
25/01:30pm 31.0 31.5 22.0 58 6.1 NNW 22 - 12 - 1011.0 - 0.0
25/01:00pm 32.0 32.4 21.0 52 7.4 N 20 - 11 - 1012.0 - 0.0
25/12:30pm 32.0 32.1 20.0 49 8.0 NNW 19 - 10 - 1012.0 - 0.0
25/12:00pm 32.1 31.9 19.7 48 8.2 NNW 20 - 11 - 1013.0 1012.5 0.0
25/11:30am 31.0 31.6 21.0 55 6.7 N 19 - 10 - 1013.0 - 0.0
25/11:00am 32.0 32.6 21.0 52 7.4 NNW 19 - 10 - 1014.0 - 0.0
25/10:30am 32.0 32.5 20.0 49 7.9 N 17 17 9 9 1014.0 - 0.0
25/10:00am 32.0 33.4 21.0 52 7.4 N 15 - 8 - 1014.0 - 0.0
25/09:30am 31.0 32.2 20.0 52 7.3 NW 13 - 7 - 1015.0 - 0.0
25/09:00am 31.6 33.3 20.2 50 7.6 NNW 11 - 6 - 1015.0 1014.6 0.0
25/08:30am 31.0 33.9 21.0 55 6.7 WNW 7 - 4 - 1015.0 - 0.0
25/08:00am 30.0 32.5 21.0 58 6.0 WNW 9 - 5 - 1015.0 - 0.0
25/07:30am 30.0 32.9 21.0 58 6.0 NW 7 - 4 - 1015.0 - 0.0
25/07:00am 29.0 31.9 21.0 62 5.3 NW 7 - 4 - 1015.0 - 0.0
25/06:30am 28.0 31.4 22.0 70 4.0 SW 7 - 4 - 1015.0 - 0.0
25/06:00am 26.9 30.0 22.1 75 3.2 SSW 9 - 5 - 1014.0 1014.1 0.0
25/05:30am 26.0 29.9 23.0 83 2.0 SSW 7 - 4 - 1014.0 - 0.0
25/05:00am 25.0 28.9 23.0 89 1.4 SSW 7 - 4 - 1013.0 - 0.0
25/04:30am 24.0 28.0 22.0 88 1.3 SSW 4 - 2 - 1013.0 - 0.0
25/04:00am 24.0 28.7 22.0 88 1.3 CALM 0 - 0 - 1013.0 - 0.0
25/03:30am 24.0 28.0 22.0 88 1.3 S 4 - 2 - 1012.0 - 0.0
25/03:00am 24.9 29.0 22.2 85 1.8 S 4 - 2 - 1012.0 1011.7 0.0
25/02:30am 25.0 28.9 23.0 89 1.4 S 7 - 4 - 1012.0 - 0.0
25/02:00am 25.0 28.6 22.0 83 2.0 S 6 - 3 - 1011.0 - 0.0
25/01:30am 25.0 28.0 22.0 83 2.0 SSW 9 - 5 - 1011.0 - 0.0
25/01:00am 26.0 29.4 22.0 78 2.7 S 7 - 4 - 1012.0 - 0.0
25/12:30am 26.0 29.0 22.0 78 2.7 SW 9 - 5 - 1012.0 - 0.0
25/12:00am 25.4 28.2 21.5 79 2.6 SW 9 - 5 - 1012.0 1011.9 0.0
 
Date/Time
WST
Temp
°C
App
Temp
°C
Dew
Point
Rel
Hum
%
Delta-T
°C
Wind Press
QNH
hPa
Press
MSL
hPa
Rain
since 9 am
mm
Dir
 
Spd
km/h
Gust
km/h
Spd
kts
Gust
kts
24/11:30pm 25.0 27.5 21.0 78 2.6 SSW 9 11 5 6 1012.0 - 0.0
24/11:00pm 25.0 27.9 21.0 78 2.6 SSW 7 - 4 - 1013.0 - 0.0
24/10:30pm 26.0 29.0 22.0 78 2.7 SW 9 - 5 - 1013.0 - 0.0
24/10:00pm 26.0 29.4 22.0 78 2.7 SW 7 - 4 - 1013.0 - 0.0
24/09:30pm 26.0 29.1 21.0 74 3.3 W 6 - 3 - 1013.0 - 0.0
24/09:00pm 26.3 29.3 21.3 74 3.3 WSW 7 - 4 - 1013.0 1012.6 0.0
24/08:30pm 27.0 29.5 21.0 69 4.0 WSW 9 - 5 - 1013.0 - 0.0
24/08:00pm 27.0 30.0 22.0 74 3.4 WSW 9 - 5 - 1012.0 - 0.0
24/07:30pm 28.0 31.0 22.0 70 4.0 WNW 9 - 5 - 1012.0 - 0.0
24/07:00pm 28.0 31.0 22.0 70 4.0 NW 9 - 5 - 1012.0 - 0.0
24/06:30pm 28.0 30.6 22.0 70 4.0 NW 11 - 6 - 1012.0 - 0.0
24/06:00pm 28.3 30.7 22.3 70 4.1 NNW 13 17 7 9 1012.0 1011.6 0.0
24/05:30pm 28.0 31.2 23.0 74 3.4 NNW 11 - 6 - 1011.0 - 0.0
24/05:00pm 28.0 29.9 22.0 70 4.0 NNW 15 - 8 - 1011.0 - 0.0
24/04:30pm 29.0 31.0 23.0 70 4.1 NW 17 - 9 - 1010.0 - 0.0
24/04:00pm 30.0 32.0 23.0 66 4.8 NW 17 - 9 - 1010.0 - 0.0
24/03:30pm 30.0 31.5 22.0 62 5.4 NNW 17 - 9 - 1010.0 - 0.0
24/03:00pm 30.5 31.5 22.1 61 5.7 NNW 20 - 11 - 1010.0 1009.7 0.0
24/02:30pm 30.0 30.4 21.0 58 6.0 NNW 20 - 11 - 1010.0 - 0.0
24/02:00pm 31.0 30.9 20.0 52 7.3 NNW 20 - 11 - 1010.0 - 0.0
24/01:30pm 31.0 31.4 21.0 55 6.7 NW 20 - 11 - 1010.0 - 0.0
24/01:00pm 32.0 33.5 22.0 55 6.8 NW 17 - 9 - 1011.0 - 0.0
24/12:30pm 32.0 33.0 21.0 52 7.4 NW 17 - 9 - 1011.0 - 0.0
24/12:00pm 31.8 33.7 22.8 59 6.2 N 17 - 9 - 1011.0 1011.2 0.0
24/11:30am 31.0 33.0 23.0 62 5.5 NNW 17 - 9 - 1012.0 - 0.0
24/11:00am 31.0 32.5 22.0 58 6.1 NNW 17 - 9 - 1012.0 - 0.0
24/10:30am 31.0 32.5 22.0 58 6.1 NW 17 - 9 - 1013.0 - 0.0
24/10:00am 31.0 32.5 22.0 58 6.1 NNW 17 - 9 - 1013.0 - 0.0
24/09:30am 31.0 33.4 23.0 62 5.5 N 15 - 8 - 1013.0 - 0.0
24/09:00am 30.4 33.2 21.5 59 6.0 N 9 - 5 - 1014.0 1013.5 0.0
24/08:30am 30.0 32.6 22.0 62 5.4 N 11 - 6 - 1014.0 - 0.0
24/08:00am 29.0 32.0 22.0 66 4.7 NW 9 - 5 - 1013.0 - 0.0
24/07:30am 29.0 32.2 23.0 70 4.1 WNW 11 - 6 - 1013.0 - 0.0
24/07:00am 29.0 32.6 23.0 70 4.1 NW 9 - 5 - 1013.0 - 0.0
24/06:30am 28.0 33.5 24.0 79 2.8 SW 2 - 1 - 1013.0 - 0.0
24/06:00am 26.6 32.2 23.5 83 2.1 CALM 0 - 0 - 1012.0 1012.1 0.0
24/05:30am 25.0 30.3 23.0 89 1.4 CALM 0 - 0 - 1012.0 - 0.0
24/05:00am 24.0 29.3 23.0 94 0.7 CALM 0 - 0 - 1012.0 - 0.0
24/04:30am 25.0 30.3 23.0 89 1.4 CALM 0 - 0 - 1012.0 - 0.0
24/04:00am 25.0 28.6 22.0 83 2.0 SW 6 - 3 - 1011.0 - 0.0
24/03:30am 26.0 29.6 22.0 78 2.7 WSW 6 - 3 - 1011.0 - 0.0
24/03:00am 26.4 30.2 22.7 80 2.5 WSW 7 - 4 - 1011.0 1010.6 0.0
24/02:30am 27.0 30.6 23.0 79 2.7 WSW 9 - 5 - 1011.0 - 0.0
24/02:00am 27.0 30.9 23.0 79 2.7 WSW 7 - 4 - 1011.0 - 0.0
24/01:30am 27.0 30.6 23.0 79 2.7 WSW 9 - 5 - 1011.0 - 0.0
24/01:00am 27.0 30.9 23.0 79 2.7 WSW 7 - 4 - 1011.0 - 0.0
24/12:30am 27.0 30.9 23.0 79 2.7 WSW 7 - 4 - 1012.0 - 0.0
24/12:00am 27.2 31.0 22.8 77 3.0 WSW 7 - 4 - 1012.0 1011.9 0.0
 
Date/Time
WST
Temp
°C
App
Temp
°C
Dew
Point
Rel
Hum
%
Delta-T
°C
Wind Press
QNH
hPa
Press
MSL
hPa
Rain
since 9 am
mm
Dir
 
Spd
km/h
Gust
km/h
Spd
kts
Gust
kts
23/11:30pm 27.0 30.9 23.0 79 2.7 WSW 7 - 4 - 1012.0 - 0.0
23/11:00pm 28.0 31.6 23.0 74 3.4 WSW 9 - 5 - 1013.0 - 0.0
23/10:30pm 28.0 31.9 23.0 74 3.4 WSW 7 - 4 - 1013.0 - 0.0
23/10:00pm 28.0 31.6 23.0 74 3.4 W 9 - 5 - 1013.0 - 0.0
23/09:30pm 28.0 31.6 23.0 74 3.4 W 9 - 5 - 1013.0 - 0.0
23/09:00pm 27.8 31.2 22.7 74 3.5 W 9 - 5 - 1013.0 1013.0 0.0
23/08:30pm 28.0 31.6 23.0 74 3.4 W 9 - 5 - 1013.0 - 0.0
23/08:00pm 28.0 31.6 23.0 74 3.4 W 9 - 5 - 1013.0 - 0.0
23/07:30pm 28.0 31.6 23.0 74 3.4 WNW 9 - 5 - 1012.0 - 0.0
23/07:00pm 28.0 31.6 23.0 74 3.4 NW 9 - 5 - 1012.0 - 0.0
23/06:30pm 28.0 31.6 23.0 74 3.4 NW 9 - 5 - 1012.0 - 0.0
23/06:00pm 28.1 30.5 22.3 70 3.9 NNW 13 - 7 - 1011.0 1011.0 0.0
23/05:30pm 29.0 30.4 21.0 62 5.3 NNW 15 - 8 - 1011.0 - 0.0
23/05:00pm 29.0 30.9 22.0 66 4.7 NNW 15 - 8 - 1010.0 - 0.0
23/04:30pm 30.0 32.3 22.0 62 5.4 NNW 13 - 7 - 1011.0 - 0.0
23/04:00pm 30.0 31.4 21.0 58 6.0 NNW 15 - 8 - 1010.0 - 0.0
23/03:30pm 31.0 31.6 21.0 55 6.7 NNW 19 - 10 - 1010.0 - 0.0
23/03:00pm 31.0 30.8 19.4 50 7.6 NW 19 - 10 - 1010.0 1009.9 0.0
23/02:30pm 31.0 31.6 21.0 55 6.7 N 19 - 10 - 1010.0 - 0.0
23/02:00pm 31.0 31.9 22.0 58 6.1 NNW 20 - 11 - 1010.0 - 0.0
23/01:30pm 31.0 31.6 21.0 55 6.7 NNW 19 - 10 - 1010.0 - 0.0
23/01:00pm 32.0 33.1 22.0 55 6.8 NNW 19 - 10 - 1011.0 - 0.0
23/12:30pm 32.0 33.5 22.0 55 6.8 N 17 - 9 - 1011.0 - 0.0
23/12:00pm 32.9 34.2 20.8 49 8.1 NW 15 - 8 - 1012.0 1011.6 0.0
23/11:30am 31.0 31.6 21.0 55 6.7 NNW 19 - 10 - 1012.0 - 0.0
23/11:00am 32.0 32.6 21.0 52 7.4 NNW 19 - 10 - 1012.0 - 0.0
23/10:30am 32.0 33.4 21.0 52 7.4 NNW 15 - 8 - 1013.0 - 0.0
23/10:00am 33.0 34.7 21.0 49 8.1 NNW 13 - 7 - 1013.0 - 0.0
23/09:30am 32.0 33.7 21.0 52 7.4 NW 13 - 7 - 1013.0 - 0.0
23/08:30am 30.0 33.6 23.0 66 4.8 WNW 9 - 5 - 1014.0 - 0.0
23/08:00am 29.0 31.6 22.0 66 4.7 W 11 - 6 - 1014.0 - 0.0
23/07:30am 29.0 32.0 22.0 66 4.7 W 9 - 5 - 1014.0 - 0.0
23/07:00am 29.0 31.8 23.0 70 4.1 W 13 - 7 - 1013.0 - 0.0
23/06:30am 28.0 31.9 23.0 74 3.4 WNW 7 - 4 - 1013.0 - 0.0
23/06:00am 26.9 32.6 23.8 83 2.1 CALM 0 - 0 - 1013.0 1012.6 0.0
23/05:30am 26.0 31.5 24.0 89 1.4 SE 2 - 1 - 1012.0 - 0.0
23/05:00am 27.0 31.7 24.0 83 2.1 SSW 6 - 3 - 1012.0 - 0.0
23/04:30am 27.0 32.8 24.0 83 2.1 CALM 0 - 0 - 1012.0 - 0.0
23/04:00am 27.0 31.7 24.0 83 2.1 WSW 6 - 3 - 1011.0 - 0.0
23/03:30am 27.0 31.7 24.0 83 2.1 SW 6 - 3 - 1011.0 - 0.0
23/03:00am 26.3 30.8 24.0 87 1.6 SW 7 - 4 - 1011.0 1010.6 0.0
23/02:44am 27.0 31.5 24.0 83 2.1 W 7 - 4 - 1011.0 - 0.0
23/02:30am 27.0 31.7 24.0 83 2.1 W 6 - 3 - 1011.0 - 0.0
23/02:00am 26.0 30.5 24.0 89 1.4 W 7 - 4 - 1011.0 - 0.0
23/01:30am 27.0 31.7 24.0 83 2.1 WNW 6 - 3 - 1011.0 - 0.0
23/01:00am 27.0 31.5 24.0 83 2.1 W 7 - 4 - 1011.0 - 0.0
23/12:30am 27.0 31.1 24.0 83 2.1 W 9 - 5 - 1012.0 - 0.0
23/12:00am 26.9 30.9 23.8 83 2.1 W 9 - 5 - 1012.0 1011.9 0.0
 
Date/Time
WST
Temp
°C
App
Temp
°C
Dew
Point
Rel
Hum
%
Delta-T
°C
Wind Press
QNH
hPa
Press
MSL
hPa
Rain
since 9 am
mm
Dir
 
Spd
km/h
Gust
km/h
Spd
kts
Gust
kts
22/11:30pm 27.0 31.5 24.0 83 2.1 W 7 - 4 - 1012.0 - 0.0
22/11:00pm 27.0 31.5 24.0 83 2.1 WNW 7 - 4 - 1012.0 - 0.0
22/10:30pm 27.0 30.9 23.0 79 2.7 W 7 - 4 - 1013.0 - 0.0
22/10:00pm 27.0 31.7 24.0 83 2.1 W 6 - 3 - 1013.0 - 0.0
22/09:30pm 27.0 31.5 24.0 83 2.1 WNW 7 - 4 - 1013.0 - 0.0
22/09:00pm 26.8 31.1 23.7 83 2.1 NW 7 - 4 - 1013.0 1013.0 0.0
22/08:30pm 27.0 31.1 24.0 83 2.1 NW 9 - 5 - 1013.0 - 0.0
22/08:00pm 27.0 30.9 23.0 79 2.7 NNW 7 - 4 - 1013.0 - 0.0
22/07:30pm 27.0 30.9 23.0 79 2.7 NW 7 - 4 - 1013.0 - 0.0
22/07:00pm 28.0 31.2 23.0 74 3.4 NW 11 - 6 - 1012.0 - 0.0
22/06:30pm 28.0 31.2 23.0 74 3.4 NNW 11 - 6 - 1012.0 - 0.0

Other Formats:

Comma delimited format used in spreadsheet applications
http://www.bom.gov.au/fwo/IDW60801/IDW60801.95101.axf

JavaScript Object Notation format (JSON) in row-major order
http://www.bom.gov.au/fwo/IDW60801/IDW60801.95101.json